createdAt,value
2022-11-22T00:01:53.641Z,8.00
2022-11-22T00:04:22.983Z,7.88
2022-11-22T00:06:52.024Z,5.70
2022-11-22T00:09:21.043Z,5.53
2022-11-22T00:11:49.986Z,6.18
2022-11-22T00:14:19.100Z,5.10
2022-11-22T00:16:47.888Z,5.70
2022-11-22T00:19:17.164Z,6.88
2022-11-22T00:21:46.095Z,6.38
2022-11-22T00:24:15.256Z,5.60
2022-11-22T00:26:44.262Z,6.40
2022-11-22T00:29:15.247Z,5.85
2022-11-22T00:31:44.360Z,5.50
2022-11-22T00:34:13.419Z,6.07
2022-11-22T00:36:43.365Z,4.97
2022-11-22T00:39:12.233Z,5.47
2022-11-22T00:41:41.341Z,4.77
2022-11-22T00:44:10.308Z,5.05
2022-11-22T00:46:39.433Z,4.97
2022-11-22T00:49:11.295Z,5.85
2022-11-22T00:51:41.361Z,4.30
2022-11-22T00:54:10.451Z,4.88
2022-11-22T00:56:39.726Z,5.18
2022-11-22T00:59:08.625Z,8.00
2022-11-22T01:01:37.972Z,5.23
2022-11-22T01:04:06.858Z,5.22
2022-11-22T01:06:36.136Z,5.00
2022-11-22T01:09:05.675Z,5.03
2022-11-22T01:11:35.278Z,5.03
2022-11-22T01:14:04.535Z,5.90
2022-11-22T01:16:33.560Z,5.97
2022-11-22T01:19:02.622Z,6.03
2022-11-22T01:21:31.668Z,5.28
2022-11-22T01:24:01.580Z,5.45
2022-11-22T01:26:31.255Z,6.10
2022-11-22T01:29:00.106Z,5.45
2022-11-22T01:31:30.961Z,5.53
2022-11-22T01:34:00.648Z,6.10
2022-11-22T01:36:29.855Z,4.80
2022-11-22T01:38:58.827Z,5.78
2022-11-22T01:41:27.824Z,6.18
2022-11-22T01:43:56.912Z,7.32
2022-11-22T01:46:39.236Z,7.93
2022-11-22T01:49:18.207Z,6.60
2022-11-22T01:51:52.276Z,6.40
2022-11-22T01:54:25.603Z,5.95
2022-11-22T01:57:01.528Z,6.43
2022-11-22T01:59:33.985Z,4.80
2022-11-22T02:02:04.213Z,5.80
2022-11-22T02:04:34.761Z,7.28
2022-11-22T02:07:20.921Z,7.03
2022-11-22T02:09:53.604Z,7.45
2022-11-22T02:12:27.894Z,8.15
2022-11-22T02:14:57.591Z,6.90
2022-11-22T02:17:27.782Z,10.05
2022-11-22T02:19:57.692Z,9.45
2022-11-22T02:22:53.686Z,8.40
2022-11-22T02:25:32.559Z,8.10
2022-11-22T02:28:01.663Z,6.47
2022-11-22T02:30:30.660Z,7.38
2022-11-22T02:33:00.266Z,8.10
2022-11-22T02:35:31.377Z,7.10
2022-11-22T02:38:07.579Z,9.95
2022-11-22T02:40:43.359Z,8.63
2022-11-22T02:43:26.287Z,9.27
2022-11-22T02:45:55.395Z,9.38
2022-11-22T02:48:24.315Z,9.10
2022-11-22T02:50:54.279Z,8.07
2022-11-22T02:53:23.161Z,9.88
2022-11-22T02:55:52.210Z,11.15
2022-11-22T02:58:21.550Z,9.57
2022-11-22T03:00:50.617Z,11.45
2022-11-22T03:03:19.688Z,10.75
2022-11-22T03:05:48.667Z,11.13
2022-11-22T03:08:17.697Z,11.25
2022-11-22T03:10:46.498Z,9.60
2022-11-22T03:13:15.726Z,11.90
2022-11-22T03:15:48.064Z,12.00
2022-11-22T03:18:17.311Z,13.32
2022-11-22T03:20:46.129Z,11.95
2022-11-22T03:23:15.237Z,13.35
2022-11-22T03:25:44.284Z,12.18
2022-11-22T03:28:13.594Z,13.10
2022-11-22T03:30:43.252Z,11.68
2022-11-22T03:33:12.575Z,12.70
2022-11-22T03:35:41.563Z,14.48
2022-11-22T03:38:10.613Z,13.23
2022-11-22T03:40:39.540Z,12.38
2022-11-22T03:43:08.576Z,11.23
2022-11-22T03:45:37.450Z,11.23
2022-11-22T03:48:07.218Z,10.93
2022-11-22T03:50:36.027Z,13.10
2022-11-22T03:53:05.377Z,11.68
2022-11-22T03:55:35.423Z,11.65
2022-11-22T03:58:06.034Z,11.88
2022-11-22T04:00:36.186Z,12.43
2022-11-22T04:03:05.282Z,13.75
2022-11-22T04:05:34.182Z,11.65
2022-11-22T04:08:03.255Z,11.27
2022-11-22T04:10:32.120Z,13.00
2022-11-22T04:13:01.918Z,9.60
2022-11-22T04:15:30.819Z,10.88
2022-11-22T04:17:59.990Z,12.00
2022-11-22T04:20:51.422Z,11.15
2022-11-22T04:23:23.155Z,10.02
2022-11-22T04:25:55.667Z,10.35
2022-11-22T04:28:54.166Z,9.85
2022-11-22T04:31:36.193Z,11.00
2022-11-22T04:34:05.272Z,15.40
2022-11-22T04:36:37.354Z,11.93
2022-11-22T04:39:06.625Z,10.90
2022-11-22T04:41:35.615Z,13.40
2022-11-22T04:44:22.963Z,11.73
2022-11-22T04:46:52.174Z,10.00
2022-11-22T04:49:21.044Z,9.90
2022-11-22T04:52:09.230Z,9.73
2022-11-22T04:54:38.339Z,11.63
2022-11-22T04:57:07.343Z,12.23
2022-11-22T04:59:36.764Z,13.30
2022-11-22T05:02:09.038Z,12.63
2022-11-22T05:04:38.380Z,11.75
2022-11-22T05:07:07.701Z,13.75
2022-11-22T05:09:37.043Z,11.20
2022-11-22T05:12:06.224Z,9.55
2022-11-22T05:14:35.357Z,11.23
2022-11-22T05:17:04.267Z,11.23
2022-11-22T05:19:34.462Z,11.25
2022-11-22T05:22:09.323Z,10.52
2022-11-22T05:24:38.487Z,11.13
2022-11-22T05:27:07.329Z,12.55
2022-11-22T05:29:37.380Z,10.50
2022-11-22T05:32:06.391Z,11.35
2022-11-22T05:34:35.396Z,11.80
2022-11-22T05:37:04.221Z,12.77
2022-11-22T05:39:33.450Z,12.17
2022-11-22T05:42:09.347Z,11.63
2022-11-22T05:44:38.983Z,9.73
2022-11-22T05:47:10.324Z,10.05
2022-11-22T05:49:39.894Z,11.50
2022-11-22T05:52:09.772Z,10.03
2022-11-22T05:54:39.264Z,9.70
2022-11-22T05:57:08.340Z,10.27
2022-11-22T05:59:42.539Z,10.45
2022-11-22T06:02:13.376Z,11.23
2022-11-22T06:04:42.565Z,10.30
2022-11-22T06:07:11.698Z,11.23
2022-11-22T06:09:40.913Z,11.35
2022-11-22T06:12:10.333Z,12.95
2022-11-22T06:14:43.223Z,11.98
2022-11-22T06:17:12.914Z,10.82
2022-11-22T06:19:42.098Z,9.43
2022-11-22T06:22:11.397Z,9.68
2022-11-22T06:24:40.336Z,10.20
2022-11-22T06:27:09.489Z,10.65
2022-11-22T06:29:38.438Z,12.20
2022-11-22T06:32:08.378Z,9.43
2022-11-22T06:34:37.277Z,9.75
2022-11-22T06:37:06.757Z,8.90
2022-11-22T06:39:38.863Z,10.63
2022-11-22T06:42:09.104Z,10.07
2022-11-22T06:44:38.109Z,9.20
2022-11-22T06:47:07.345Z,10.98
2022-11-22T06:49:36.320Z,12.00
2022-11-22T06:52:09.265Z,9.63
2022-11-22T06:54:38.446Z,10.00
2022-11-22T06:57:07.348Z,11.45
2022-11-22T06:59:36.878Z,9.40
2022-11-22T07:02:06.849Z,10.05
2022-11-22T07:04:36.525Z,9.38
2022-11-22T07:07:05.404Z,8.93
2022-11-22T07:09:35.164Z,7.93
2022-11-22T07:12:05.437Z,9.43
2022-11-22T07:14:35.826Z,9.00
2022-11-22T07:17:04.676Z,9.02
2022-11-22T07:19:34.183Z,8.32
2022-11-22T07:22:02.967Z,7.35
2022-11-22T07:24:31.975Z,7.90
2022-11-22T07:27:01.784Z,7.95
2022-11-22T07:29:30.976Z,7.97
2022-11-22T07:32:00.152Z,9.05
2022-11-22T07:34:29.423Z,7.80
2022-11-22T07:37:01.474Z,8.37
2022-11-22T07:39:32.808Z,8.38
2022-11-22T07:42:09.033Z,8.25
2022-11-22T07:44:39.150Z,7.53
2022-11-22T07:47:08.093Z,7.82
2022-11-22T07:49:37.349Z,9.95
2022-11-22T07:52:10.143Z,8.27
2022-11-22T07:54:39.359Z,8.73
2022-11-22T07:57:08.239Z,9.60
2022-11-22T07:59:38.559Z,8.90
2022-11-22T08:02:07.989Z,8.30
2022-11-22T08:04:37.110Z,9.80
2022-11-22T08:07:06.574Z,9.82
2022-11-22T08:09:35.571Z,9.73
2022-11-22T08:12:16.338Z,9.13
2022-11-22T08:14:45.714Z,9.55
2022-11-22T08:17:14.638Z,9.25
2022-11-22T08:19:44.114Z,8.80
2022-11-22T08:22:13.015Z,9.35
2022-11-22T08:24:42.213Z,7.93
2022-11-22T08:27:14.244Z,8.85
2022-11-22T08:29:43.458Z,8.20
2022-11-22T08:32:12.324Z,9.10
2022-11-22T08:34:46.920Z,8.52
2022-11-22T08:37:16.490Z,9.43
2022-11-22T08:39:45.493Z,7.75
2022-11-22T08:42:14.639Z,10.20
2022-11-22T08:44:43.560Z,8.20
2022-11-22T08:47:12.753Z,7.38
2022-11-22T08:49:41.634Z,8.52
2022-11-22T08:52:10.739Z,8.13
2022-11-22T08:54:39.673Z,8.00
2022-11-22T08:57:08.673Z,8.32
2022-11-22T08:59:37.819Z,7.78
2022-11-22T09:02:16.999Z,7.95
2022-11-22T09:05:06.466Z,7.53
2022-11-22T09:10:24.761Z,7.32
2022-11-22T09:12:54.488Z,6.90
2022-11-22T09:15:23.948Z,8.15
2022-11-22T09:17:53.042Z,10.75
2022-11-22T09:20:22.356Z,7.43
2022-11-22T09:22:51.373Z,8.32
2022-11-22T09:25:20.924Z,8.27
2022-11-22T09:27:49.854Z,6.72
2022-11-22T09:30:18.957Z,9.15
2022-11-22T09:32:48.021Z,8.15
2022-11-22T09:35:18.359Z,7.57
2022-11-22T09:37:48.535Z,7.97
2022-11-22T09:40:17.890Z,8.43
2022-11-22T09:43:05.174Z,10.00
2022-11-22T09:46:12.755Z,8.27
2022-11-22T09:48:46.019Z,9.40
2022-11-22T09:51:21.174Z,10.75
2022-11-22T09:53:57.345Z,8.83
2022-11-22T09:56:28.857Z,10.48
2022-11-22T09:59:18.521Z,9.10
2022-11-22T10:02:16.981Z,8.18
2022-11-22T10:05:07.451Z,7.57
2022-11-22T10:07:45.390Z,7.65
2022-11-22T10:10:24.144Z,7.38
2022-11-22T10:12:56.274Z,7.00
2022-11-22T10:15:38.151Z,5.78
2022-11-22T10:18:37.718Z,6.22
2022-11-22T10:21:11.415Z,6.30
2022-11-22T10:23:43.478Z,7.00
2022-11-22T10:26:15.854Z,7.03
2022-11-22T10:28:50.932Z,7.05
2022-11-22T10:31:27.542Z,6.43
2022-11-22T10:34:36.972Z,8.05
2022-11-22T10:37:25.651Z,6.53
2022-11-22T10:40:15.314Z,8.37
2022-11-22T10:43:03.396Z,7.63
2022-11-22T10:46:00.447Z,6.63
2022-11-22T10:48:47.937Z,7.07
2022-11-22T10:51:32.056Z,5.50
2022-11-22T10:54:50.605Z,7.82
2022-11-22T10:57:36.946Z,6.50
2022-11-22T11:00:28.676Z,6.47
2022-11-22T11:03:37.094Z,6.22
2022-11-22T11:06:50.022Z,8.50
2022-11-22T11:10:09.790Z,7.90
2022-11-22T11:12:27.464Z,8.07
2022-11-22T11:15:06.615Z,8.87
2022-11-22T11:17:39.475Z,8.73
2022-11-22T11:20:24.841Z,6.82
2022-11-22T11:25:46.006Z,6.72
2022-11-22T11:28:31.100Z,9.10
2022-11-22T11:31:08.407Z,10.65
2022-11-22T11:33:40.385Z,8.80
2022-11-22T11:36:09.700Z,8.10
2022-11-22T11:38:49.540Z,9.50
2022-11-22T11:41:30.890Z,9.00
2022-11-22T11:44:05.883Z,8.45
2022-11-22T11:46:44.017Z,6.65
2022-11-22T11:49:18.554Z,7.80
2022-11-22T11:52:02.680Z,7.97
2022-11-22T11:54:44.526Z,10.80
2022-11-22T11:57:36.747Z,7.53
2022-11-22T12:00:20.561Z,7.40
2022-11-22T12:02:52.967Z,7.93
2022-11-22T12:05:23.601Z,8.18
2022-11-22T12:07:52.546Z,7.57
2022-11-22T12:10:43.485Z,8.00
2022-11-22T12:13:57.732Z,7.10
2022-11-22T12:16:39.620Z,8.85
2022-11-22T12:19:27.736Z,7.82
2022-11-22T12:22:35.474Z,7.32
2022-11-22T12:25:31.431Z,7.53
2022-11-22T12:28:25.061Z,7.75
2022-11-22T12:31:24.516Z,7.10
2022-11-22T12:34:11.939Z,7.18
2022-11-22T12:36:54.464Z,6.95
2022-11-22T12:39:29.512Z,7.97
2022-11-22T12:45:26.530Z,7.75
2022-11-22T12:47:58.966Z,7.75
2022-11-22T12:48:32.915Z,8.43
2022-11-22T12:50:43.062Z,6.68
2022-11-22T12:53:16.480Z,8.20
2022-11-22T12:55:51.396Z,7.55
2022-11-22T12:58:49.489Z,7.05
2022-11-22T13:01:22.099Z,9.18
2022-11-22T13:04:12.024Z,9.57
2022-11-22T13:07:27.599Z,7.93
2022-11-22T13:10:22.593Z,10.30
2022-11-22T13:12:54.163Z,9.68
2022-11-22T13:15:35.659Z,9.77
2022-11-22T13:18:11.815Z,8.65
2022-11-22T13:20:48.918Z,9.48
2022-11-22T13:23:51.200Z,8.63
2022-11-22T13:26:44.984Z,9.90
2022-11-22T13:29:25.517Z,9.02
2022-11-22T13:32:13.002Z,9.00
2022-11-22T13:35:00.977Z,8.32
2022-11-22T13:37:33.523Z,9.50
2022-11-22T13:40:40.190Z,8.60
2022-11-22T13:43:21.590Z,8.90
2022-11-22T13:46:00.455Z,6.70
2022-11-22T13:48:41.767Z,7.72
2022-11-22T13:51:13.221Z,8.35
2022-11-22T13:53:50.862Z,9.07
2022-11-22T13:56:22.958Z,7.47
2022-11-22T13:59:05.463Z,8.25
2022-11-22T14:01:37.833Z,6.78
2022-11-22T14:04:22.014Z,7.68
2022-11-22T14:06:55.341Z,7.78
2022-11-22T14:09:38.195Z,7.88
2022-11-22T14:12:25.169Z,7.57
2022-11-22T14:15:22.238Z,9.25
2022-11-22T14:18:15.723Z,10.00
2022-11-22T14:21:11.352Z,9.07
2022-11-22T14:24:15.586Z,8.02
2022-11-22T14:27:06.784Z,8.65
2022-11-22T14:29:53.525Z,7.70
2022-11-22T14:32:25.345Z,8.52
2022-11-22T14:35:06.979Z,9.80
2022-11-22T14:38:04.889Z,9.18
2022-11-22T14:40:42.544Z,9.35
2022-11-22T14:43:35.425Z,7.60
2022-11-22T14:46:45.426Z,7.93
2022-11-22T14:49:29.578Z,6.90
2022-11-22T14:52:00.031Z,7.50
2022-11-22T14:54:47.114Z,6.75
2022-11-22T14:57:24.563Z,6.93
2022-11-22T15:00:21.411Z,7.28
2022-11-22T15:03:28.936Z,7.18
2022-11-22T15:09:14.762Z,7.43
2022-11-22T15:09:46.460Z,8.80
2022-11-22T15:12:53.154Z,8.37
2022-11-22T15:59:45.639Z,5.97
2022-11-22T16:02:22.855Z,5.90
2022-11-22T16:06:06.047Z,7.10
2022-11-22T16:07:49.290Z,8.38
2022-11-22T16:10:18.423Z,4.40
2022-11-22T16:12:47.631Z,3.70
2022-11-22T16:15:38.139Z,4.07
2022-11-22T16:18:14.499Z,5.85
2022-11-22T16:21:08.167Z,4.90
2022-11-22T16:23:38.756Z,6.00
2022-11-22T16:26:20.184Z,7.00
2022-11-22T16:28:52.241Z,7.50
2022-11-22T16:31:31.430Z,9.02
2022-11-22T16:34:02.043Z,9.55
2022-11-22T16:36:31.447Z,10.45
2022-11-22T16:39:00.784Z,9.27
2022-11-22T16:41:31.128Z,7.80
2022-11-22T16:44:09.736Z,8.07
2022-11-22T16:46:39.084Z,6.88
2022-11-22T16:49:28.398Z,7.72
2022-11-22T16:51:59.389Z,7.20
2022-11-22T16:54:29.563Z,7.05
2022-11-22T16:56:59.200Z,7.72
2022-11-22T16:59:28.192Z,5.60
2022-11-22T17:01:57.406Z,7.05
2022-11-22T17:04:28.675Z,7.40
2022-11-22T17:06:58.331Z,9.98
2022-11-22T17:09:27.152Z,7.20
2022-11-22T17:11:56.537Z,7.90
2022-11-22T17:14:25.504Z,8.50
2022-11-22T17:16:54.857Z,7.57
2022-11-22T17:19:51.349Z,7.47
2022-11-22T17:22:18.745Z,8.30
2022-11-22T17:24:47.938Z,8.45
2022-11-22T17:27:17.260Z,7.07
2022-11-22T17:29:50.734Z,7.03
2022-11-22T17:32:20.723Z,7.00
2022-11-22T17:34:49.875Z,5.57
2022-11-22T17:37:19.441Z,5.90
2022-11-22T17:39:54.535Z,6.95
2022-11-22T17:42:25.262Z,6.47
2022-11-22T17:44:54.545Z,6.65
2022-11-22T17:47:23.275Z,6.47
2022-11-22T17:49:52.824Z,4.45
2022-11-22T17:52:22.054Z,4.97
2022-11-22T17:54:52.566Z,5.10
2022-11-22T17:57:21.756Z,4.75
2022-11-22T17:59:50.542Z,4.47
2022-11-22T18:02:19.767Z,4.18
2022-11-22T18:04:48.688Z,3.55
2022-11-22T18:07:17.865Z,3.63
2022-11-22T18:09:52.035Z,3.50
2022-11-22T18:12:23.637Z,3.47
2022-11-22T18:14:52.905Z,4.70
2022-11-22T18:17:21.731Z,3.83
2022-11-22T18:19:51.637Z,3.80
2022-11-22T18:22:20.792Z,3.58
2022-11-22T18:24:49.739Z,5.30
2022-11-22T18:27:18.519Z,3.93
2022-11-22T18:29:48.202Z,3.72
2022-11-22T18:32:17.028Z,3.40
2022-11-22T18:34:46.222Z,3.10
2022-11-22T18:37:16.153Z,3.85
2022-11-22T18:39:45.743Z,3.42
2022-11-22T18:42:17.244Z,3.38
2022-11-22T18:44:46.761Z,4.22
2022-11-22T18:47:15.635Z,4.00
2022-11-22T18:49:44.820Z,4.15
2022-11-22T18:52:16.600Z,6.03
2022-11-22T18:54:47.712Z,6.43
2022-11-22T18:57:16.503Z,5.03
2022-11-22T18:59:45.653Z,5.77
2022-11-22T19:02:14.600Z,5.13
2022-11-22T19:04:44.012Z,6.00
2022-11-22T19:07:15.396Z,6.05
2022-11-22T19:09:45.465Z,5.65
2022-11-22T19:12:14.267Z,6.20
2022-11-22T19:14:43.898Z,6.55
2022-11-22T19:17:14.116Z,6.70
2022-11-22T19:19:47.065Z,4.22
2022-11-22T19:22:16.425Z,4.00
2022-11-22T19:24:47.347Z,4.93
2022-11-22T19:27:16.784Z,4.03
2022-11-22T19:29:45.785Z,4.90
2022-11-22T19:32:17.904Z,3.78
2022-11-22T19:34:47.198Z,6.88
2022-11-22T19:37:16.092Z,5.22
2022-11-22T19:39:45.225Z,6.35
2022-11-22T19:42:14.138Z,5.55
2022-11-22T19:44:43.559Z,5.45
2022-11-22T19:47:12.517Z,6.40
2022-11-22T19:49:41.745Z,5.68
2022-11-22T19:52:10.598Z,5.10
2022-11-22T19:54:39.831Z,3.60
2022-11-22T19:57:08.694Z,3.17
2022-11-22T19:59:38.076Z,3.80
2022-11-22T20:02:07.378Z,4.35
2022-11-22T20:04:37.620Z,3.80
2022-11-22T20:07:06.727Z,4.25
2022-11-22T20:09:38.591Z,3.60
2022-11-22T20:12:08.545Z,4.40
2022-11-22T20:14:37.321Z,4.15
2022-11-22T20:17:06.801Z,5.00
2022-11-22T20:19:35.643Z,5.63
2022-11-22T20:22:05.162Z,5.40
2022-11-22T20:24:34.288Z,5.88
2022-11-22T20:27:03.493Z,6.43
2022-11-22T20:29:32.343Z,5.13
2022-11-22T20:32:02.755Z,4.45
2022-11-22T20:34:31.994Z,3.72
2022-11-22T20:37:03.246Z,2.53
2022-11-22T20:39:36.236Z,3.83
2022-11-22T20:42:33.121Z,3.80
2022-11-22T20:44:55.242Z,6.05
2022-11-22T20:47:24.470Z,5.10
2022-11-22T20:49:53.598Z,3.00
2022-11-22T20:52:22.459Z,4.00
2022-11-22T20:54:52.405Z,4.07
2022-11-22T20:57:22.300Z,5.00
2022-11-22T20:59:51.289Z,3.28
2022-11-22T21:02:20.285Z,5.00
2022-11-22T21:04:49.239Z,3.83
2022-11-22T21:07:18.182Z,4.47
2022-11-22T21:09:47.226Z,3.67
2022-11-22T21:12:16.047Z,3.88
2022-11-22T21:14:45.164Z,3.33
2022-11-22T21:17:37.508Z,6.82
2022-11-22T21:20:03.204Z,2.93
2022-11-22T21:22:32.560Z,3.50
2022-11-22T21:25:02.441Z,2.77
2022-11-22T21:27:31.374Z,3.00
2022-11-22T21:30:00.674Z,4.20
2022-11-22T21:32:31.922Z,3.90
2022-11-22T21:35:01.109Z,5.33
2022-11-22T21:37:29.945Z,4.03
2022-11-22T21:39:59.546Z,3.77
2022-11-22T21:42:28.412Z,3.13
2022-11-22T21:44:57.403Z,3.75
2022-11-22T21:47:26.239Z,2.78
2022-11-22T21:49:55.569Z,3.25
2022-11-22T21:52:24.364Z,2.40
2022-11-22T21:54:55.332Z,2.20
2022-11-22T21:57:24.279Z,1.30
2022-11-22T21:59:53.284Z,1.70
2022-11-22T22:02:22.130Z,1.60
2022-11-22T22:04:51.242Z,1.98
2022-11-22T22:07:44.708Z,1.98
2022-11-22T22:10:09.575Z,1.58
2022-11-22T22:12:40.527Z,1.48
2022-11-22T22:15:13.651Z,3.45
2022-11-22T22:17:42.706Z,1.52
2022-11-22T22:20:12.002Z,1.77
2022-11-22T22:22:41.733Z,2.15
2022-11-22T22:25:10.749Z,2.87
2022-11-22T22:27:39.920Z,3.33
2022-11-22T22:30:09.910Z,2.40
2022-11-22T22:32:39.417Z,2.33
2022-11-22T22:35:08.906Z,2.70
2022-11-22T22:37:38.076Z,2.30
2022-11-22T22:40:07.362Z,2.00
2022-11-22T22:42:36.552Z,2.15
2022-11-22T22:45:05.774Z,3.42
2022-11-22T22:47:34.859Z,2.47
2022-11-22T22:50:03.698Z,2.33
2022-11-22T22:52:33.492Z,3.28
2022-11-22T22:55:02.393Z,2.42
2022-11-22T22:57:31.605Z,3.05
2022-11-22T23:00:00.809Z,2.67
2022-11-22T23:02:30.734Z,2.50
2022-11-22T23:04:59.539Z,2.03
2022-11-22T23:07:29.758Z,2.67
2022-11-22T23:09:58.639Z,2.95
2022-11-22T23:12:28.274Z,3.35
2022-11-22T23:14:57.668Z,2.72
2022-11-22T23:17:26.887Z,2.28
2022-11-22T23:19:55.696Z,3.22
2022-11-22T23:22:26.084Z,2.08
2022-11-22T23:24:55.511Z,2.10
2022-11-22T23:27:24.355Z,3.35
2022-11-22T23:29:53.478Z,3.53
2022-11-22T23:32:22.301Z,2.55
2022-11-22T23:34:51.574Z,3.55
2022-11-22T23:37:20.445Z,4.00
2022-11-22T23:39:49.467Z,2.65
2022-11-22T23:42:18.271Z,4.88
2022-11-22T23:44:47.386Z,2.25
2022-11-22T23:47:16.278Z,1.77
2022-11-22T23:49:45.344Z,2.20
2022-11-22T23:52:14.683Z,2.33
2022-11-22T23:54:44.532Z,2.25
2022-11-22T23:57:13.684Z,2.30
2022-11-22T23:59:42.725Z,2.13
